createdAt,value
2017-09-29T00:00:26.979Z,19.43
2017-09-29T00:02:54.826Z,20.23
2017-09-29T00:05:22.294Z,19.03
2017-09-29T00:07:49.824Z,18.87
2017-09-29T00:10:17.268Z,19.50
2017-09-29T00:12:44.703Z,19.20
2017-09-29T00:15:12.626Z,18.87
2017-09-29T00:17:40.070Z,18.10
2017-09-29T00:20:07.487Z,19.07
2017-09-29T00:22:34.934Z,19.17
2017-09-29T00:25:02.364Z,19.07
2017-09-29T00:27:29.815Z,19.10
2017-09-29T00:29:57.305Z,19.57
2017-09-29T00:32:24.751Z,17.40
2017-09-29T00:34:52.189Z,18.90
2017-09-29T00:37:19.669Z,20.00
2017-09-29T00:39:47.109Z,20.17
2017-09-29T00:42:14.547Z,18.50
2017-09-29T00:44:42.411Z,20.80
2017-09-29T00:47:09.844Z,18.80
2017-09-29T00:49:37.273Z,20.27
2017-09-29T00:52:04.970Z,19.83
2017-09-29T00:54:32.401Z,19.17
2017-09-29T00:56:59.830Z,21.47
2017-09-29T00:59:27.285Z,20.40
2017-09-29T01:01:54.713Z,21.07
2017-09-29T01:04:22.157Z,20.87
2017-09-29T01:06:49.583Z,19.20
2017-09-29T01:09:17.447Z,20.03
2017-09-29T01:11:44.874Z,20.40
2017-09-29T01:14:12.304Z,19.80
2017-09-29T01:16:39.788Z,19.17
2017-09-29T01:19:07.237Z,20.63
2017-09-29T01:21:34.662Z,20.03
2017-09-29T01:24:02.496Z,20.20
2017-09-29T01:26:29.939Z,19.67
2017-09-29T01:28:57.365Z,22.23
2017-09-29T01:31:25.230Z,20.40
2017-09-29T01:33:53.061Z,19.47
2017-09-29T01:36:20.493Z,21.80
2017-09-29T01:38:48.176Z,20.23
2017-09-29T01:41:15.599Z,19.43
2017-09-29T01:43:43.095Z,19.90
2017-09-29T01:46:10.550Z,19.63
2017-09-29T01:48:37.981Z,20.90
2017-09-29T01:51:05.807Z,21.57
2017-09-29T01:53:33.463Z,20.83
2017-09-29T01:56:00.891Z,20.90
2017-09-29T01:58:28.324Z,20.80
2017-09-29T02:00:55.770Z,20.73
2017-09-29T02:03:23.202Z,19.50
2017-09-29T02:05:51.423Z,18.90
2017-09-29T02:08:19.045Z,18.70
2017-09-29T02:10:46.468Z,20.13
2017-09-29T02:13:14.890Z,19.87
2017-09-29T02:15:42.563Z,20.20
2017-09-29T02:18:09.984Z,19.60
2017-09-29T02:20:37.888Z,20.37
2017-09-29T02:23:05.551Z,19.43
2017-09-29T02:25:32.987Z,21.53
2017-09-29T02:28:00.417Z,21.43
2017-09-29T02:30:28.699Z,20.43
2017-09-29T02:32:56.160Z,20.93
2017-09-29T02:35:23.617Z,21.73
2017-09-29T02:37:52.755Z,20.27
2017-09-29T02:40:21.884Z,20.73
2017-09-29T02:42:49.302Z,20.23
2017-09-29T02:45:17.191Z,20.93
2017-09-29T02:47:44.676Z,21.30
2017-09-29T02:50:12.184Z,20.90
2017-09-29T02:52:39.840Z,20.37
2017-09-29T02:55:07.324Z,20.53
2017-09-29T02:57:40.708Z,21.67
2017-09-29T03:00:14.773Z,25.07
2017-09-29T03:02:48.000Z,23.90
2017-09-29T03:05:22.477Z,22.63
2017-09-29T03:07:49.955Z,21.67
2017-09-29T03:10:17.416Z,20.83
2017-09-29T03:12:44.855Z,22.20
2017-09-29T03:15:12.324Z,22.33
2017-09-29T03:17:39.776Z,22.67
2017-09-29T03:20:07.217Z,21.03
2017-09-29T03:22:35.248Z,22.87
2017-09-29T03:25:02.699Z,21.90
2017-09-29T03:27:30.143Z,20.53
2017-09-29T03:29:57.619Z,21.60
2017-09-29T03:32:25.090Z,20.70
2017-09-29T03:34:52.539Z,20.60
2017-09-29T03:37:20.044Z,19.27
2017-09-29T03:39:47.485Z,22.57
2017-09-29T03:42:14.946Z,22.50
2017-09-29T03:44:42.451Z,19.80
2017-09-29T03:47:09.931Z,20.37
2017-09-29T03:49:38.836Z,23.17
2017-09-29T03:52:15.821Z,21.90
2017-09-29T03:54:46.262Z,21.97
2017-09-29T03:57:20.964Z,23.17
2017-09-29T03:59:49.043Z,22.23
2017-09-29T04:02:16.908Z,22.77
2017-09-29T04:04:44.933Z,21.70
2017-09-29T04:07:12.513Z,22.00
2017-09-29T04:09:39.991Z,23.00
2017-09-29T04:12:07.459Z,20.23
2017-09-29T04:14:35.501Z,23.07
2017-09-29T04:17:02.965Z,22.30
2017-09-29T04:19:30.419Z,22.03
2017-09-29T04:21:58.035Z,23.70
2017-09-29T04:24:25.504Z,24.63
2017-09-29T04:26:53.360Z,23.17
2017-09-29T04:29:21.323Z,21.97
2017-09-29T04:31:48.767Z,23.27
2017-09-29T04:34:16.614Z,24.03
2017-09-29T04:36:44.126Z,26.37
2017-09-29T04:39:11.687Z,22.33
2017-09-29T04:41:39.125Z,23.50
2017-09-29T04:44:06.580Z,24.83
2017-09-29T04:46:34.026Z,25.13
2017-09-29T04:49:01.471Z,23.50
2017-09-29T04:51:29.162Z,25.43
2017-09-29T04:53:56.624Z,25.10
2017-09-29T04:56:24.057Z,23.33
2017-09-29T04:58:51.560Z,24.50
2017-09-29T05:01:18.995Z,25.60
2017-09-29T05:03:46.468Z,25.03
2017-09-29T05:06:13.936Z,24.40
2017-09-29T05:08:41.360Z,24.17
2017-09-29T05:11:08.813Z,24.37
2017-09-29T05:13:36.708Z,23.10
2017-09-29T05:16:04.192Z,26.87
2017-09-29T05:18:31.663Z,25.77
2017-09-29T05:20:59.471Z,25.07
2017-09-29T05:23:26.925Z,24.40
2017-09-29T05:25:54.470Z,26.10
2017-09-29T05:28:21.956Z,26.67
2017-09-29T05:30:49.415Z,27.50
2017-09-29T05:33:17.274Z,23.90
2017-09-29T05:35:44.795Z,27.90
2017-09-29T05:38:12.235Z,24.80
2017-09-29T05:40:39.704Z,25.53
2017-09-29T05:43:07.416Z,25.83
2017-09-29T05:45:34.903Z,25.60
2017-09-29T05:48:02.418Z,26.60
2017-09-29T05:50:29.898Z,26.90
2017-09-29T05:52:57.354Z,24.63
2017-09-29T05:55:24.822Z,25.70
2017-09-29T05:57:53.360Z,25.50
2017-09-29T06:00:21.209Z,25.17
2017-09-29T06:02:48.727Z,23.17
2017-09-29T06:05:16.443Z,23.63
2017-09-29T06:07:43.907Z,24.20
2017-09-29T06:10:11.375Z,23.97
2017-09-29T06:12:38.904Z,24.73
2017-09-29T06:15:06.348Z,25.10
2017-09-29T06:17:33.817Z,25.50
2017-09-29T06:20:01.493Z,23.67
2017-09-29T06:22:29.024Z,24.20
2017-09-29T06:24:56.513Z,23.13
2017-09-29T06:27:23.990Z,25.60
2017-09-29T06:29:51.488Z,23.93
2017-09-29T06:32:19.362Z,23.53
2017-09-29T06:34:46.892Z,23.70
2017-09-29T06:37:14.329Z,24.10
2017-09-29T06:39:42.099Z,25.40
2017-09-29T06:42:09.592Z,24.53
2017-09-29T06:44:37.011Z,24.40
2017-09-29T06:47:04.485Z,23.90
2017-09-29T06:49:32.001Z,24.90
2017-09-29T06:51:59.837Z,22.90
2017-09-29T06:54:27.282Z,22.67
2017-09-29T06:56:54.764Z,22.80
2017-09-29T06:59:22.220Z,23.37
2017-09-29T07:01:49.701Z,25.17
2017-09-29T07:04:17.171Z,26.13
2017-09-29T07:06:45.028Z,24.63
2017-09-29T07:09:12.779Z,25.10
2017-09-29T07:11:40.312Z,24.10
2017-09-29T07:14:07.873Z,24.43
2017-09-29T07:16:35.327Z,25.03
2017-09-29T07:19:02.831Z,25.17
2017-09-29T07:21:30.300Z,24.27
2017-09-29T07:23:57.776Z,26.27
2017-09-29T07:26:31.031Z,26.50
2017-09-29T07:29:02.974Z,26.70
2017-09-29T07:31:35.439Z,25.00
2017-09-29T07:34:02.913Z,26.30
2017-09-29T07:36:30.624Z,25.07
2017-09-29T07:38:58.076Z,28.27
2017-09-29T07:41:25.519Z,25.97
2017-09-29T07:43:52.983Z,26.93
2017-09-29T07:46:20.544Z,25.13
2017-09-29T07:48:48.001Z,26.60
2017-09-29T07:51:15.592Z,25.70
2017-09-29T07:53:43.020Z,25.10
2017-09-29T07:56:10.474Z,28.00
2017-09-29T07:58:37.947Z,24.60
2017-09-29T08:01:05.453Z,26.93
2017-09-29T08:03:33.350Z,27.60
2017-09-29T08:06:00.822Z,25.73
2017-09-29T08:08:28.377Z,26.33
2017-09-29T08:10:55.819Z,26.90
2017-09-29T08:13:23.295Z,25.00
2017-09-29T08:15:51.155Z,26.17
2017-09-29T08:18:19.221Z,26.90
2017-09-29T08:20:46.666Z,26.17
2017-09-29T08:23:14.117Z,25.30
2017-09-29T08:25:41.869Z,26.50
2017-09-29T08:28:09.304Z,25.87
2017-09-29T08:30:37.179Z,25.63
2017-09-29T08:33:05.194Z,26.20
2017-09-29T08:35:32.699Z,24.60
2017-09-29T08:38:00.175Z,24.77
2017-09-29T08:40:27.706Z,25.23
2017-09-29T08:42:55.186Z,23.47
2017-09-29T08:45:22.686Z,33.00
2017-09-29T08:47:50.202Z,27.10
2017-09-29T08:50:17.687Z,22.20
2017-09-29T08:52:45.121Z,21.43
2017-09-29T08:55:12.604Z,21.27
2017-09-29T08:57:40.478Z,21.23
2017-09-29T09:00:08.355Z,19.40
2017-09-29T09:02:36.412Z,23.47
2017-09-29T09:05:03.924Z,22.27
2017-09-29T09:07:31.376Z,21.80
2017-09-29T09:09:58.837Z,19.70
2017-09-29T09:12:26.302Z,14.30
2017-09-29T09:14:53.772Z,14.87
2017-09-29T09:17:22.597Z,17.70
2017-09-29T09:19:50.056Z,16.03
2017-09-29T09:22:17.526Z,13.90
2017-09-29T09:24:44.975Z,13.00
2017-09-29T09:27:12.465Z,13.57
2017-09-29T09:29:40.112Z,11.90
2017-09-29T09:32:07.596Z,13.13
2017-09-29T09:34:35.253Z,13.90
2017-09-29T09:37:02.731Z,11.47
2017-09-29T09:39:30.211Z,10.80
2017-09-29T09:41:58.044Z,11.70
2017-09-29T09:44:25.495Z,10.63
2017-09-29T09:46:52.951Z,9.50
2017-09-29T09:49:20.430Z,11.37
2017-09-29T09:51:48.192Z,8.73
2017-09-29T09:54:15.608Z,8.60
2017-09-29T09:56:43.062Z,8.13
2017-09-29T09:59:10.910Z,9.50
2017-09-29T10:01:38.448Z,8.10
2017-09-29T10:04:05.889Z,9.17
2017-09-29T10:06:33.347Z,8.17
2017-09-29T10:09:00.798Z,8.73
2017-09-29T10:11:28.232Z,7.23
2017-09-29T10:13:56.081Z,7.40
2017-09-29T10:16:23.500Z,7.60
2017-09-29T10:18:50.938Z,7.47
2017-09-29T10:21:18.786Z,7.80
2017-09-29T10:23:46.640Z,7.80
2017-09-29T10:26:14.092Z,8.03
2017-09-29T10:28:41.538Z,7.10
2017-09-29T10:31:08.957Z,6.30
2017-09-29T10:33:36.812Z,6.57
2017-09-29T10:36:04.245Z,8.30
2017-09-29T10:38:31.678Z,7.90
2017-09-29T10:40:59.118Z,6.90
2017-09-29T10:43:26.535Z,6.53
2017-09-29T10:45:54.045Z,6.70
2017-09-29T10:48:21.500Z,8.97
2017-09-29T10:50:48.932Z,8.00
2017-09-29T10:53:16.360Z,7.73
2017-09-29T10:55:43.807Z,6.63
2017-09-29T10:58:11.945Z,7.20
2017-09-29T11:00:39.776Z,6.80
2017-09-29T11:03:07.373Z,6.43
2017-09-29T11:05:34.807Z,6.20
2017-09-29T11:08:02.266Z,5.80
2017-09-29T11:10:29.889Z,6.37
2017-09-29T11:12:57.712Z,5.53
2017-09-29T11:15:25.131Z,5.43
2017-09-29T11:17:52.634Z,6.43
2017-09-29T11:20:20.077Z,4.37
2017-09-29T11:22:47.542Z,4.87
2017-09-29T11:25:14.973Z,6.00
2017-09-29T11:27:42.400Z,6.13
2017-09-29T11:30:10.054Z,6.53
2017-09-29T11:32:37.497Z,5.30
2017-09-29T11:35:04.938Z,5.97
2017-09-29T11:37:32.400Z,4.60
2017-09-29T11:39:59.858Z,6.77
2017-09-29T11:42:27.335Z,6.27
2017-09-29T11:44:54.793Z,5.37
2017-09-29T11:47:22.378Z,5.80
2017-09-29T11:49:49.976Z,5.60
2017-09-29T11:52:17.415Z,5.57
2017-09-29T11:54:44.858Z,4.43
2017-09-29T11:57:12.307Z,4.90
2017-09-29T11:59:40.345Z,4.70
2017-09-29T12:02:08.175Z,5.03
2017-09-29T12:04:35.644Z,4.33
2017-09-29T12:07:03.065Z,4.90
2017-09-29T12:09:30.519Z,4.47
2017-09-29T12:11:58.001Z,4.10
2017-09-29T12:14:25.463Z,4.57
2017-09-29T12:16:52.883Z,4.57
2017-09-29T12:19:20.780Z,3.83
2017-09-29T12:21:48.216Z,4.53
2017-09-29T12:24:16.229Z,3.37
2017-09-29T12:26:43.788Z,3.73
2017-09-29T12:29:11.247Z,3.50
2017-09-29T12:31:39.100Z,3.40
2017-09-29T12:34:06.959Z,3.97
2017-09-29T12:36:34.482Z,3.30
2017-09-29T12:39:01.940Z,3.87
2017-09-29T12:41:29.391Z,3.03
2017-09-29T12:43:56.845Z,3.07
2017-09-29T12:46:24.296Z,3.57
2017-09-29T12:48:51.751Z,3.20
2017-09-29T12:51:19.603Z,3.47
2017-09-29T12:53:47.040Z,3.20
2017-09-29T12:56:14.485Z,3.20
2017-09-29T12:58:41.974Z,3.60
2017-09-29T13:01:09.480Z,3.63
2017-09-29T13:03:36.934Z,3.77
2017-09-29T13:06:04.793Z,3.60
2017-09-29T13:08:33.198Z,5.40
2017-09-29T13:11:00.690Z,3.93
2017-09-29T13:13:28.357Z,25.80
2017-09-29T13:15:55.826Z,9.10
2017-09-29T13:18:23.335Z,12.07
2017-09-29T13:20:51.471Z,5.90
2017-09-29T13:23:18.916Z,6.10
2017-09-29T13:25:46.357Z,7.97
2017-09-29T13:30:48.892Z,4.50
2017-09-29T13:33:16.550Z,4.80
2017-09-29T13:35:43.979Z,4.07
2017-09-29T13:38:11.419Z,5.10
2017-09-29T13:40:39.278Z,3.83
2017-09-29T13:43:07.113Z,4.10
2017-09-29T13:45:34.591Z,5.60
2017-09-29T13:48:02.183Z,3.83
2017-09-29T13:50:30.045Z,3.70
2017-09-29T13:52:57.553Z,4.40
2017-09-29T13:55:25.014Z,4.90
2017-09-29T13:57:52.597Z,4.07
2017-09-29T14:00:20.320Z,4.33
2017-09-29T14:02:47.761Z,2.90
2017-09-29T14:05:15.210Z,3.87
2017-09-29T14:07:42.672Z,3.70
2017-09-29T14:10:10.096Z,4.33
2017-09-29T14:12:37.522Z,4.37
2017-09-29T14:15:05.389Z,4.50
2017-09-29T14:17:33.223Z,3.90
2017-09-29T14:20:00.672Z,3.80
2017-09-29T14:22:28.276Z,3.67
2017-09-29T14:24:55.761Z,4.07
2017-09-29T14:27:24.033Z,4.43
2017-09-29T14:29:51.893Z,4.27
2017-09-29T14:32:19.384Z,3.77
2017-09-29T14:34:47.187Z,4.30
2017-09-29T14:37:14.754Z,3.40
2017-09-29T14:39:42.248Z,4.20
2017-09-29T14:42:09.683Z,3.93
2017-09-29T14:44:37.277Z,4.50
2017-09-29T14:47:04.775Z,4.03
2017-09-29T14:49:32.201Z,3.70
2017-09-29T14:52:00.203Z,4.70
2017-09-29T14:54:27.624Z,4.70
2017-09-29T14:56:55.068Z,3.90
2017-09-29T14:59:22.648Z,4.23
2017-09-29T15:01:50.148Z,3.97
2017-09-29T15:04:18.111Z,5.13
2017-09-29T15:06:45.982Z,4.27
2017-09-29T15:09:13.442Z,4.07
2017-09-29T15:11:40.929Z,4.50
2017-09-29T15:14:08.754Z,4.80
2017-09-29T15:16:36.205Z,4.60
2017-09-29T15:19:03.886Z,3.90
2017-09-29T15:21:31.364Z,4.00
2017-09-29T15:23:58.801Z,4.90
2017-09-29T15:26:26.567Z,3.90
2017-09-29T15:28:54.131Z,5.13
2017-09-29T15:31:21.921Z,3.40
2017-09-29T15:33:49.392Z,4.10
2017-09-29T15:36:16.821Z,4.70
2017-09-29T15:38:44.336Z,4.40
2017-09-29T15:41:11.819Z,3.80
2017-09-29T15:43:39.261Z,4.10
2017-09-29T15:46:06.701Z,5.00
2017-09-29T15:48:34.158Z,4.27
2017-09-29T15:51:02.004Z,4.53
2017-09-29T15:53:29.445Z,4.60
2017-09-29T15:55:56.924Z,5.07
2017-09-29T15:58:24.370Z,4.43
2017-09-29T16:00:51.970Z,4.77
2017-09-29T16:03:20.439Z,4.23
2017-09-29T16:05:47.888Z,5.10
2017-09-29T16:08:15.316Z,4.30
2017-09-29T16:10:42.800Z,4.63
2017-09-29T16:13:10.214Z,5.00
2017-09-29T16:15:38.061Z,4.50
2017-09-29T16:18:05.571Z,4.40
2017-09-29T16:20:33.396Z,4.20
2017-09-29T16:23:00.868Z,5.10
2017-09-29T16:25:28.301Z,5.10
2017-09-29T16:27:55.731Z,4.93
2017-09-29T16:30:23.236Z,5.73
2017-09-29T16:32:50.711Z,4.47
2017-09-29T16:35:18.159Z,4.13
2017-09-29T16:37:45.615Z,4.97
2017-09-29T16:40:13.057Z,4.30
2017-09-29T16:42:40.499Z,4.60
2017-09-29T16:45:08.006Z,4.73
2017-09-29T16:47:35.470Z,4.70
2017-09-29T16:50:02.946Z,4.33
2017-09-29T16:52:30.389Z,5.27
2017-09-29T16:54:57.907Z,4.97
2017-09-29T16:57:25.751Z,5.30
2017-09-29T16:59:53.209Z,4.63
2017-09-29T17:02:21.132Z,4.70
2017-09-29T17:04:48.573Z,5.07
2017-09-29T17:07:16.402Z,4.40
2017-09-29T17:09:44.046Z,5.20
2017-09-29T17:12:11.473Z,5.47
2017-09-29T17:14:39.294Z,5.87
2017-09-29T17:17:06.953Z,5.53
2017-09-29T17:19:34.409Z,6.20
2017-09-29T17:22:01.828Z,5.60
2017-09-29T17:24:29.680Z,5.70
2017-09-29T17:26:57.121Z,5.10
2017-09-29T17:29:24.663Z,5.43
2017-09-29T17:31:52.133Z,5.20
2017-09-29T17:34:19.526Z,5.00
2017-09-29T17:36:47.234Z,6.00
2017-09-29T17:39:14.655Z,6.37
2017-09-29T17:41:42.240Z,6.10
2017-09-29T17:44:10.084Z,5.93
2017-09-29T17:46:37.498Z,5.93
2017-09-29T17:49:04.911Z,6.97
2017-09-29T17:51:32.352Z,5.80
2017-09-29T17:53:59.835Z,6.13
2017-09-29T17:56:27.268Z,6.60
2017-09-29T17:58:54.704Z,6.13
2017-09-29T18:01:22.174Z,7.30
2017-09-29T18:03:49.600Z,6.53
2017-09-29T18:06:17.615Z,9.17
2017-09-29T18:08:45.272Z,17.97
2017-09-29T18:11:12.719Z,13.47
2017-09-29T18:13:40.149Z,16.47
2017-09-29T18:16:07.627Z,13.97
2017-09-29T18:18:35.452Z,11.03
2017-09-29T18:21:02.897Z,10.57
2017-09-29T18:23:30.339Z,9.90
2017-09-29T18:25:58.615Z,10.30
2017-09-29T18:28:26.046Z,10.60
2017-09-29T18:30:53.985Z,9.60
2017-09-29T18:33:21.405Z,8.57
2017-09-29T18:35:48.924Z,9.30
2017-09-29T18:38:16.365Z,8.87
2017-09-29T18:40:48.416Z,8.90
2017-09-29T18:43:16.251Z,7.67
2017-09-29T18:45:44.863Z,7.97
2017-09-29T18:48:12.291Z,6.90
2017-09-29T18:50:39.744Z,8.33
2017-09-29T18:53:07.168Z,8.70
2017-09-29T18:55:34.618Z,9.83
2017-09-29T18:58:02.086Z,9.60
2017-09-29T19:00:30.357Z,12.27
2017-09-29T19:02:57.796Z,12.20
2017-09-29T19:05:25.720Z,11.70
2017-09-29T19:07:53.152Z,11.73
2017-09-29T19:10:20.587Z,12.63
2017-09-29T19:12:49.186Z,10.63
2017-09-29T19:15:16.655Z,9.80
2017-09-29T19:17:44.797Z,8.73
2017-09-29T19:20:12.251Z,9.40
2017-09-29T19:22:39.743Z,9.37
2017-09-29T19:25:07.148Z,9.20
2017-09-29T19:27:34.811Z,9.83
2017-09-29T19:30:02.225Z,9.47
2017-09-29T19:32:30.052Z,9.40
2017-09-29T19:34:57.502Z,11.27
2017-09-29T19:37:24.922Z,10.50
2017-09-29T19:39:52.778Z,11.40
2017-09-29T19:42:20.208Z,12.90
2017-09-29T19:44:47.648Z,12.63
2017-09-29T19:50:05.733Z,9.53
2017-09-29T19:52:33.169Z,10.50
2017-09-29T19:55:00.596Z,10.43
2017-09-29T19:57:28.452Z,10.10
2017-09-29T19:59:57.308Z,10.17
2017-09-29T20:02:24.759Z,10.23
2017-09-29T20:04:52.208Z,11.17
2017-09-29T20:07:20.208Z,9.83
2017-09-29T20:09:49.498Z,11.07
2017-09-29T20:12:16.938Z,9.60
2017-09-29T20:14:44.406Z,9.50
2017-09-29T20:17:11.834Z,10.03
2017-09-29T20:19:39.443Z,11.03
2017-09-29T20:22:06.907Z,9.97
2017-09-29T20:24:34.344Z,9.17
2017-09-29T20:27:02.177Z,10.00
2017-09-29T20:32:20.510Z,11.47
2017-09-29T20:34:47.942Z,11.00
2017-09-29T20:37:15.356Z,11.40
2017-09-29T20:39:42.822Z,11.60
2017-09-29T20:42:10.270Z,10.50
2017-09-29T20:44:37.896Z,10.60
2017-09-29T20:47:05.324Z,11.50
2017-09-29T20:49:33.143Z,11.30
2017-09-29T20:52:02.469Z,10.40
2017-09-29T20:54:32.098Z,10.20
2017-09-29T20:56:59.537Z,10.03
2017-09-29T20:59:27.183Z,10.63
2017-09-29T21:01:54.616Z,10.27
2017-09-29T21:04:22.045Z,10.60
2017-09-29T21:06:49.666Z,10.93
2017-09-29T21:09:17.108Z,9.20
2017-09-29T21:11:44.535Z,8.83
2017-09-29T21:14:11.977Z,8.40
2017-09-29T21:16:39.427Z,8.70
2017-09-29T21:19:06.949Z,8.97
2017-09-29T21:21:34.387Z,9.40
2017-09-29T21:24:01.851Z,7.83
2017-09-29T21:26:29.276Z,8.97
2017-09-29T21:28:56.816Z,9.80
2017-09-29T21:31:24.297Z,8.60
2017-09-29T21:33:51.723Z,8.03
2017-09-29T21:36:19.664Z,9.50
2017-09-29T21:38:47.287Z,9.23
2017-09-29T21:41:14.746Z,8.73
2017-09-29T21:43:42.194Z,8.40
2017-09-29T21:46:09.999Z,8.50
2017-09-29T21:48:37.429Z,8.50
2017-09-29T21:51:05.026Z,9.00
2017-09-29T21:53:32.452Z,8.57
2017-09-29T21:55:59.901Z,8.33
2017-09-29T21:58:27.809Z,9.40
2017-09-29T22:00:55.246Z,9.40
2017-09-29T22:03:22.948Z,9.57
2017-09-29T22:05:51.932Z,9.77
2017-09-29T22:08:19.376Z,9.63
2017-09-29T22:10:46.848Z,8.90
2017-09-29T22:13:14.528Z,9.27
2017-09-29T22:15:41.962Z,8.77
2017-09-29T22:18:09.382Z,8.97
2017-09-29T22:20:36.817Z,9.90
2017-09-29T22:23:05.080Z,9.00
2017-09-29T22:25:32.511Z,9.33
2017-09-29T22:28:00.370Z,8.87
2017-09-29T22:30:28.214Z,10.53
2017-09-29T22:32:55.671Z,9.10
2017-09-29T22:35:23.116Z,9.47
2017-09-29T22:37:50.776Z,10.50
2017-09-29T22:40:18.207Z,10.30
2017-09-29T22:42:46.799Z,10.10
2017-09-29T22:45:14.628Z,9.87
2017-09-29T22:47:42.170Z,10.10
2017-09-29T22:50:10.503Z,8.87
2017-09-29T22:52:38.331Z,9.87
2017-09-29T22:55:05.767Z,10.33
2017-09-29T22:57:34.043Z,9.33
2017-09-29T23:00:01.508Z,10.00
2017-09-29T23:02:29.312Z,10.37
2017-09-29T23:04:56.753Z,10.00
2017-09-29T23:07:24.192Z,9.93
2017-09-29T23:09:51.879Z,9.57
2017-09-29T23:12:19.305Z,11.40
2017-09-29T23:14:47.135Z,11.10
2017-09-29T23:17:14.784Z,10.40
2017-09-29T23:19:42.226Z,10.47
2017-09-29T23:22:09.647Z,10.80
2017-09-29T23:24:37.102Z,9.40
2017-09-29T23:27:04.637Z,9.90
2017-09-29T23:29:32.080Z,11.40
2017-09-29T23:31:59.646Z,10.80
2017-09-29T23:34:27.083Z,10.13
2017-09-29T23:36:54.584Z,10.00
2017-09-29T23:39:22.046Z,10.00
2017-09-29T23:41:49.470Z,9.80
2017-09-29T23:44:17.294Z,9.37
2017-09-29T23:46:44.872Z,10.63
2017-09-29T23:49:12.317Z,10.03
2017-09-29T23:51:39.752Z,10.70
2017-09-29T23:54:07.204Z,11.90
2017-09-29T23:56:34.632Z,10.30
2017-09-29T23:59:02.590Z,11.27
